sensor_id;sensor_type;location;lat;lon;timestamp;P1;durP1;ratioP1;P2;durP2;ratioP2
43142;SDS011;28750;59.842;17.584;2023-10-19T00:02:06;1.73;;;1.30;;
43142;SDS011;28750;59.842;17.584;2023-10-19T00:04:33;2.80;;;1.48;;
43142;SDS011;28750;59.842;17.584;2023-10-19T00:07:01;1.52;;;1.10;;
43142;SDS011;28750;59.842;17.584;2023-10-19T00:09:31;1.75;;;1.13;;
43142;SDS011;28750;59.842;17.584;2023-10-19T00:12:03;1.77;;;1.40;;
43142;SDS011;28750;59.842;17.584;2023-10-19T00:14:34;2.83;;;1.00;;
43142;SDS011;28750;59.842;17.584;2023-10-19T00:17:00;2.00;;;1.05;;
43142;SDS011;28750;59.842;17.584;2023-10-19T00:19:32;1.73;;;1.10;;
43142;SDS011;28750;59.842;17.584;2023-10-19T00:22:04;1.98;;;1.15;;
43142;SDS011;28750;59.842;17.584;2023-10-19T00:24:34;4.28;;;1.33;;
43142;SDS011;28750;59.842;17.584;2023-10-19T00:27:02;1.77;;;1.08;;
43142;SDS011;28750;59.842;17.584;2023-10-19T00:29:40;1.58;;;1.00;;
43142;SDS011;28750;59.842;17.584;2023-10-19T00:32:13;1.25;;;0.95;;
43142;SDS011;28750;59.842;17.584;2023-10-19T00:34:40;2.70;;;1.33;;
43142;SDS011;28750;59.842;17.584;2023-10-19T00:37:16;2.13;;;0.93;;
43142;SDS011;28750;59.842;17.584;2023-10-19T00:39:52;4.88;;;1.40;;
43142;SDS011;28750;59.842;17.584;2023-10-19T00:42:21;3.33;;;1.23;;
43142;SDS011;28750;59.842;17.584;2023-10-19T00:44:54;4.95;;;1.33;;
43142;SDS011;28750;59.842;17.584;2023-10-19T00:47:27;2.35;;;1.23;;
43142;SDS011;28750;59.842;17.584;2023-10-19T00:50:04;1.80;;;1.00;;
43142;SDS011;28750;59.842;17.584;2023-10-19T00:52:39;1.80;;;1.10;;
43142;SDS011;28750;59.842;17.584;2023-10-19T00:57:40;1.30;;;1.08;;
43142;SDS011;28750;59.842;17.584;2023-10-19T01:02:47;1.98;;;1.40;;
43142;SDS011;28750;59.842;17.584;2023-10-19T01:05:16;3.10;;;0.80;;
43142;SDS011;28750;59.842;17.584;2023-10-19T01:07:46;4.17;;;1.10;;
43142;SDS011;28750;59.842;17.584;2023-10-19T01:10:21;2.50;;;0.80;;
43142;SDS011;28750;59.842;17.584;2023-10-19T01:12:49;1.27;;;0.70;;
43142;SDS011;28750;59.842;17.584;2023-10-19T01:15:17;1.48;;;0.95;;
43142;SDS011;28750;59.842;17.584;2023-10-19T01:17:51;3.60;;;0.80;;
43142;SDS011;28750;59.842;17.584;2023-10-19T01:20:22;0.60;;;0.50;;
43142;SDS011;28750;59.842;17.584;2023-10-19T01:23:13;4.40;;;1.88;;
43142;SDS011;28750;59.842;17.584;2023-10-19T01:25:52;1.27;;;0.80;;
43142;SDS011;28750;59.842;17.584;2023-10-19T01:28:37;1.75;;;0.70;;
43142;SDS011;28750;59.842;17.584;2023-10-19T01:31:20;0.65;;;0.63;;
43142;SDS011;28750;59.842;17.584;2023-10-19T01:34:03;0.85;;;0.80;;
43142;SDS011;28750;59.842;17.584;2023-10-19T01:36:31;0.47;;;0.45;;
43142;SDS011;28750;59.842;17.584;2023-10-19T01:39:02;1.00;;;0.63;;
43142;SDS011;28750;59.842;17.584;2023-10-19T01:41:34;1.15;;;0.50;;
43142;SDS011;28750;59.842;17.584;2023-10-19T01:44:02;1.85;;;0.70;;
43142;SDS011;28750;59.842;17.584;2023-10-19T01:46:30;0.70;;;0.60;;
43142;SDS011;28750;59.842;17.584;2023-10-19T01:48:59;2.05;;;0.50;;
43142;SDS011;28750;59.842;17.584;2023-10-19T01:51:28;0.45;;;0.45;;
43142;SDS011;28750;59.842;17.584;2023-10-19T01:53:58;2.08;;;0.93;;
43142;SDS011;28750;59.842;17.584;2023-10-19T01:56:26;0.85;;;0.70;;
43142;SDS011;28750;59.842;17.584;2023-10-19T01:58:54;3.53;;;0.90;;
43142;SDS011;28750;59.842;17.584;2023-10-19T02:01:22;0.63;;;0.63;;
43142;SDS011;28750;59.842;17.584;2023-10-19T02:03:55;7.25;;;1.30;;
43142;SDS011;28750;59.842;17.584;2023-10-19T02:06:24;2.40;;;0.77;;
43142;SDS011;28750;59.842;17.584;2023-10-19T02:09:00;1.95;;;0.88;;
43142;SDS011;28750;59.842;17.584;2023-10-19T02:11:35;2.00;;;1.20;;
43142;SDS011;28750;59.842;17.584;2023-10-19T02:14:07;3.65;;;1.08;;
43142;SDS011;28750;59.842;17.584;2023-10-19T02:16:39;1.42;;;1.13;;
43142;SDS011;28750;59.842;17.584;2023-10-19T02:19:09;2.90;;;1.05;;
43142;SDS011;28750;59.842;17.584;2023-10-19T02:21:35;2.25;;;1.50;;
43142;SDS011;28750;59.842;17.584;2023-10-19T02:24:06;1.20;;;1.10;;
43142;SDS011;28750;59.842;17.584;2023-10-19T02:26:33;1.40;;;1.25;;
43142;SDS011;28750;59.842;17.584;2023-10-19T02:29:02;1.92;;;1.67;;
43142;SDS011;28750;59.842;17.584;2023-10-19T02:31:33;3.10;;;1.85;;
43142;SDS011;28750;59.842;17.584;2023-10-19T02:34:03;2.20;;;1.63;;
43142;SDS011;28750;59.842;17.584;2023-10-19T02:36:30;1.85;;;1.75;;
43142;SDS011;28750;59.842;17.584;2023-10-19T02:39:01;3.47;;;1.80;;
43142;SDS011;28750;59.842;17.584;2023-10-19T02:41:33;3.25;;;1.98;;
43142;SDS011;28750;59.842;17.584;2023-10-19T02:44:07;6.10;;;1.88;;
43142;SDS011;28750;59.842;17.584;2023-10-19T02:46:38;5.32;;;2.15;;
43142;SDS011;28750;59.842;17.584;2023-10-19T02:49:07;6.15;;;2.05;;
43142;SDS011;28750;59.842;17.584;2023-10-19T02:51:37;2.90;;;1.52;;
43142;SDS011;28750;59.842;17.584;2023-10-19T02:54:05;3.47;;;1.50;;
43142;SDS011;28750;59.842;17.584;2023-10-19T02:56:33;1.65;;;1.38;;
43142;SDS011;28750;59.842;17.584;2023-10-19T02:59:02;1.60;;;1.20;;
43142;SDS011;28750;59.842;17.584;2023-10-19T03:01:29;2.78;;;1.52;;
43142;SDS011;28750;59.842;17.584;2023-10-19T03:03:59;4.23;;;1.80;;
43142;SDS011;28750;59.842;17.584;2023-10-19T03:06:26;1.35;;;1.15;;
43142;SDS011;28750;59.842;17.584;2023-10-19T03:08:58;2.55;;;1.95;;
43142;SDS011;28750;59.842;17.584;2023-10-19T03:11:28;2.03;;;1.50;;
43142;SDS011;28750;59.842;17.584;2023-10-19T03:13:55;2.25;;;1.42;;
43142;SDS011;28750;59.842;17.584;2023-10-19T03:16:22;2.00;;;1.42;;
43142;SDS011;28750;59.842;17.584;2023-10-19T03:18:55;3.70;;;1.83;;
43142;SDS011;28750;59.842;17.584;2023-10-19T03:21:21;2.60;;;1.45;;
43142;SDS011;28750;59.842;17.584;2023-10-19T03:23:53;2.28;;;1.95;;
43142;SDS011;28750;59.842;17.584;2023-10-19T03:26:22;2.00;;;1.35;;
43142;SDS011;28750;59.842;17.584;2023-10-19T03:31:21;2.75;;;1.50;;
43142;SDS011;28750;59.842;17.584;2023-10-19T03:33:51;1.88;;;1.50;;
43142;SDS011;28750;59.842;17.584;2023-10-19T03:36:21;2.23;;;1.63;;
43142;SDS011;28750;59.842;17.584;2023-10-19T03:38:50;3.05;;;1.50;;
43142;SDS011;28750;59.842;17.584;2023-10-19T03:41:19;2.35;;;1.35;;
43142;SDS011;28750;59.842;17.584;2023-10-19T03:43:55;2.47;;;1.30;;
43142;SDS011;28750;59.842;17.584;2023-10-19T03:46:23;3.97;;;1.45;;
43142;SDS011;28750;59.842;17.584;2023-10-19T03:48:57;2.80;;;1.70;;
43142;SDS011;28750;59.842;17.584;2023-10-19T03:51:29;2.10;;;1.20;;
43142;SDS011;28750;59.842;17.584;2023-10-19T03:54:05;2.63;;;1.80;;
43142;SDS011;28750;59.842;17.584;2023-10-19T03:56:46;2.90;;;1.55;;
43142;SDS011;28750;59.842;17.584;2023-10-19T03:59:17;2.53;;;1.30;;
43142;SDS011;28750;59.842;17.584;2023-10-19T04:01:45;3.08;;;1.55;;
43142;SDS011;28750;59.842;17.584;2023-10-19T04:04:13;4.97;;;1.70;;
43142;SDS011;28750;59.842;17.584;2023-10-19T04:06:41;1.95;;;1.77;;
43142;SDS011;28750;59.842;17.584;2023-10-19T04:11:43;1.83;;;1.37;;
43142;SDS011;28750;59.842;17.584;2023-10-19T04:14:16;3.20;;;2.05;;
43142;SDS011;28750;59.842;17.584;2023-10-19T04:16:46;3.50;;;2.50;;
43142;SDS011;28750;59.842;17.584;2023-10-19T04:19:14;2.35;;;2.00;;
43142;SDS011;28750;59.842;17.584;2023-10-19T04:21:42;4.15;;;2.53;;
43142;SDS011;28750;59.842;17.584;2023-10-19T04:24:12;7.70;;;2.42;;
43142;SDS011;28750;59.842;17.584;2023-10-19T04:26:40;4.82;;;2.10;;
43142;SDS011;28750;59.842;17.584;2023-10-19T04:29:07;4.97;;;2.92;;
43142;SDS011;28750;59.842;17.584;2023-10-19T04:31:37;2.80;;;2.20;;
43142;SDS011;28750;59.842;17.584;2023-10-19T04:34:14;1.98;;;1.73;;
43142;SDS011;28750;59.842;17.584;2023-10-19T04:36:45;4.55;;;2.58;;
43142;SDS011;28750;59.842;17.584;2023-10-19T04:39:13;3.25;;;2.70;;
43142;SDS011;28750;59.842;17.584;2023-10-19T04:41:45;6.53;;;2.72;;
43142;SDS011;28750;59.842;17.584;2023-10-19T04:44:14;2.90;;;2.17;;
43142;SDS011;28750;59.842;17.584;2023-10-19T04:46:42;3.60;;;2.45;;
43142;SDS011;28750;59.842;17.584;2023-10-19T04:49:09;2.78;;;2.25;;
43142;SDS011;28750;59.842;17.584;2023-10-19T04:51:36;4.75;;;2.50;;
43142;SDS011;28750;59.842;17.584;2023-10-19T04:54:04;2.90;;;2.20;;
43142;SDS011;28750;59.842;17.584;2023-10-19T04:56:33;3.25;;;2.17;;
43142;SDS011;28750;59.842;17.584;2023-10-19T04:59:02;3.85;;;2.40;;
43142;SDS011;28750;59.842;17.584;2023-10-19T05:01:30;2.55;;;1.80;;
43142;SDS011;28750;59.842;17.584;2023-10-19T05:03:59;3.88;;;2.05;;
43142;SDS011;28750;59.842;17.584;2023-10-19T05:06:26;2.13;;;1.92;;
43142;SDS011;28750;59.842;17.584;2023-10-19T05:08:54;3.10;;;1.70;;
43142;SDS011;28750;59.842;17.584;2023-10-19T05:11:22;2.55;;;1.88;;
43142;SDS011;28750;59.842;17.584;2023-10-19T05:13:49;1.77;;;1.50;;
43142;SDS011;28750;59.842;17.584;2023-10-19T05:16:17;2.20;;;1.77;;
43142;SDS011;28750;59.842;17.584;2023-10-19T05:18:44;1.60;;;1.50;;
43142;SDS011;28750;59.842;17.584;2023-10-19T05:21:11;3.65;;;1.50;;
43142;SDS011;28750;59.842;17.584;2023-10-19T05:23:39;1.77;;;1.60;;
43142;SDS011;28750;59.842;17.584;2023-10-19T05:26:06;2.03;;;1.52;;
43142;SDS011;28750;59.842;17.584;2023-10-19T05:28:33;3.20;;;1.80;;
43142;SDS011;28750;59.842;17.584;2023-10-19T05:31:01;4.45;;;1.70;;
43142;SDS011;28750;59.842;17.584;2023-10-19T05:33:29;2.40;;;1.55;;
43142;SDS011;28750;59.842;17.584;2023-10-19T05:35:58;3.25;;;1.55;;
43142;SDS011;28750;59.842;17.584;2023-10-19T05:38:26;1.40;;;1.30;;
43142;SDS011;28750;59.842;17.584;2023-10-19T05:40:53;1.52;;;1.35;;
43142;SDS011;28750;59.842;17.584;2023-10-19T05:43:27;4.43;;;1.90;;
43142;SDS011;28750;59.842;17.584;2023-10-19T05:45:55;1.77;;;1.63;;
43142;SDS011;28750;59.842;17.584;2023-10-19T05:48:23;2.70;;;1.90;;
43142;SDS011;28750;59.842;17.584;2023-10-19T05:50:50;2.50;;;1.90;;
43142;SDS011;28750;59.842;17.584;2023-10-19T05:53:18;4.68;;;2.15;;
43142;SDS011;28750;59.842;17.584;2023-10-19T05:55:48;4.68;;;2.00;;
43142;SDS011;28750;59.842;17.584;2023-10-19T05:58:15;3.17;;;2.00;;
43142;SDS011;28750;59.842;17.584;2023-10-19T06:00:42;4.75;;;2.30;;
43142;SDS011;28750;59.842;17.584;2023-10-19T06:03:10;5.45;;;2.83;;
43142;SDS011;28750;59.842;17.584;2023-10-19T06:05:37;5.32;;;2.88;;
43142;SDS011;28750;59.842;17.584;2023-10-19T06:08:04;5.20;;;3.45;;
43142;SDS011;28750;59.842;17.584;2023-10-19T06:10:31;5.38;;;2.58;;
43142;SDS011;28750;59.842;17.584;2023-10-19T06:12:58;3.40;;;2.83;;
43142;SDS011;28750;59.842;17.584;2023-10-19T06:15:25;4.28;;;2.65;;
43142;SDS011;28750;59.842;17.584;2023-10-19T06:17:56;4.22;;;2.58;;
43142;SDS011;28750;59.842;17.584;2023-10-19T06:20:23;7.40;;;2.90;;
43142;SDS011;28750;59.842;17.584;2023-10-19T06:22:55;3.22;;;2.35;;
43142;SDS011;28750;59.842;17.584;2023-10-19T06:25:29;2.10;;;1.52;;
43142;SDS011;28750;59.842;17.584;2023-10-19T06:27:57;2.30;;;2.10;;
43142;SDS011;28750;59.842;17.584;2023-10-19T06:30:25;2.78;;;1.80;;
43142;SDS011;28750;59.842;17.584;2023-10-19T06:32:59;3.50;;;1.60;;
43142;SDS011;28750;59.842;17.584;2023-10-19T06:35:28;5.97;;;2.20;;
43142;SDS011;28750;59.842;17.584;2023-10-19T06:37:59;2.58;;;1.65;;
43142;SDS011;28750;59.842;17.584;2023-10-19T06:40:28;2.13;;;1.70;;
43142;SDS011;28750;59.842;17.584;2023-10-19T06:42:56;1.92;;;1.58;;
43142;SDS011;28750;59.842;17.584;2023-10-19T06:45:27;4.70;;;2.05;;
43142;SDS011;28750;59.842;17.584;2023-10-19T06:47:55;3.53;;;1.80;;
43142;SDS011;28750;59.842;17.584;2023-10-19T06:50:23;4.15;;;2.10;;
43142;SDS011;28750;59.842;17.584;2023-10-19T06:52:51;6.18;;;4.03;;
43142;SDS011;28750;59.842;17.584;2023-10-19T06:55:19;4.35;;;1.90;;
43142;SDS011;28750;59.842;17.584;2023-10-19T06:57:48;3.10;;;1.52;;
43142;SDS011;28750;59.842;17.584;2023-10-19T07:00:21;1.23;;;1.10;;
43142;SDS011;28750;59.842;17.584;2023-10-19T07:02:52;2.45;;;2.20;;
43142;SDS011;28750;59.842;17.584;2023-10-19T07:05:21;1.85;;;1.08;;
43142;SDS011;28750;59.842;17.584;2023-10-19T07:07:49;1.55;;;1.10;;
43142;SDS011;28750;59.842;17.584;2023-10-19T07:10:20;1.65;;;1.08;;
43142;SDS011;28750;59.842;17.584;2023-10-19T07:12:50;1.88;;;1.40;;
43142;SDS011;28750;59.842;17.584;2023-10-19T07:17:47;3.45;;;1.70;;
43142;SDS011;28750;59.842;17.584;2023-10-19T07:20:17;2.08;;;1.30;;
43142;SDS011;28750;59.842;17.584;2023-10-19T07:22:50;3.78;;;1.38;;
43142;SDS011;28750;59.842;17.584;2023-10-19T07:25:18;2.90;;;1.60;;
43142;SDS011;28750;59.842;17.584;2023-10-19T07:27:49;2.20;;;1.25;;
43142;SDS011;28750;59.842;17.584;2023-10-19T07:30:17;2.38;;;1.75;;
43142;SDS011;28750;59.842;17.584;2023-10-19T07:32:50;3.78;;;1.77;;
43142;SDS011;28750;59.842;17.584;2023-10-19T07:35:20;2.13;;;1.40;;
43142;SDS011;28750;59.842;17.584;2023-10-19T07:37:51;5.78;;;1.45;;
43142;SDS011;28750;59.842;17.584;2023-10-19T07:40:19;2.38;;;1.88;;
43142;SDS011;28750;59.842;17.584;2023-10-19T07:42:47;1.27;;;1.10;;
43142;SDS011;28750;59.842;17.584;2023-10-19T07:45:17;1.80;;;1.60;;
43142;SDS011;28750;59.842;17.584;2023-10-19T07:47:44;2.33;;;1.65;;
43142;SDS011;28750;59.842;17.584;2023-10-19T07:50:12;2.28;;;1.92;;
43142;SDS011;28750;59.842;17.584;2023-10-19T07:52:44;2.92;;;1.83;;
43142;SDS011;28750;59.842;17.584;2023-10-19T07:55:13;4.68;;;1.83;;
43142;SDS011;28750;59.842;17.584;2023-10-19T07:57:41;1.50;;;1.30;;
43142;SDS011;28750;59.842;17.584;2023-10-19T08:00:09;1.30;;;1.15;;
43142;SDS011;28750;59.842;17.584;2023-10-19T08:02:39;3.15;;;0.88;;
43142;SDS011;28750;59.842;17.584;2023-10-19T08:05:07;3.03;;;1.40;;
43142;SDS011;28750;59.842;17.584;2023-10-19T08:07:37;1.75;;;1.40;;
43142;SDS011;28750;59.842;17.584;2023-10-19T08:10:07;3.47;;;1.05;;
43142;SDS011;28750;59.842;17.584;2023-10-19T08:12:39;1.52;;;1.13;;
43142;SDS011;28750;59.842;17.584;2023-10-19T08:15:10;2.10;;;1.17;;
43142;SDS011;28750;59.842;17.584;2023-10-19T08:17:44;2.03;;;1.08;;
43142;SDS011;28750;59.842;17.584;2023-10-19T08:20:12;0.65;;;0.65;;
43142;SDS011;28750;59.842;17.584;2023-10-19T08:22:48;1.25;;;0.90;;
43142;SDS011;28750;59.842;17.584;2023-10-19T08:25:16;1.30;;;0.55;;
43142;SDS011;28750;59.842;17.584;2023-10-19T08:27:44;2.20;;;0.88;;
43142;SDS011;28750;59.842;17.584;2023-10-19T08:30:15;1.10;;;0.75;;
43142;SDS011;28750;59.842;17.584;2023-10-19T08:32:46;2.65;;;0.82;;
43142;SDS011;28750;59.842;17.584;2023-10-19T08:35:15;1.42;;;0.90;;
43142;SDS011;28750;59.842;17.584;2023-10-19T08:37:45;1.00;;;0.52;;
43142;SDS011;28750;59.842;17.584;2023-10-19T08:40:13;1.23;;;0.63;;
43142;SDS011;28750;59.842;17.584;2023-10-19T08:42:44;1.40;;;0.60;;
43142;SDS011;28750;59.842;17.584;2023-10-19T08:45:13;1.13;;;0.77;;
43142;SDS011;28750;59.842;17.584;2023-10-19T08:47:54;1.33;;;0.68;;
43142;SDS011;28750;59.842;17.584;2023-10-19T08:50:27;1.40;;;0.70;;
43142;SDS011;28750;59.842;17.584;2023-10-19T08:52:56;1.55;;;0.73;;
43142;SDS011;28750;59.842;17.584;2023-10-19T08:55:25;1.17;;;0.65;;
43142;SDS011;28750;59.842;17.584;2023-10-19T08:57:52;0.90;;;0.73;;
43142;SDS011;28750;59.842;17.584;2023-10-19T09:00:20;1.17;;;1.00;;
43142;SDS011;28750;59.842;17.584;2023-10-19T09:02:51;1.05;;;0.63;;
43142;SDS011;28750;59.842;17.584;2023-10-19T09:05:19;1.65;;;0.68;;
43142;SDS011;28750;59.842;17.584;2023-10-19T09:07:48;1.42;;;0.77;;
43142;SDS011;28750;59.842;17.584;2023-10-19T09:10:25;1.40;;;0.80;;
43142;SDS011;28750;59.842;17.584;2023-10-19T09:13:00;0.82;;;0.70;;
43142;SDS011;28750;59.842;17.584;2023-10-19T09:15:30;1.58;;;0.90;;
43142;SDS011;28750;59.842;17.584;2023-10-19T09:18:07;1.10;;;1.00;;
43142;SDS011;28750;59.842;17.584;2023-10-19T09:20:43;1.90;;;0.70;;
43142;SDS011;28750;59.842;17.584;2023-10-19T09:23:19;1.17;;;0.60;;
43142;SDS011;28750;59.842;17.584;2023-10-19T09:25:50;2.70;;;1.08;;
43142;SDS011;28750;59.842;17.584;2023-10-19T09:28:19;1.13;;;0.68;;
43142;SDS011;28750;59.842;17.584;2023-10-19T09:30:49;2.42;;;0.65;;
43142;SDS011;28750;59.842;17.584;2023-10-19T09:33:16;0.90;;;0.90;;
43142;SDS011;28750;59.842;17.584;2023-10-19T09:35:47;3.07;;;1.10;;
43142;SDS011;28750;59.842;17.584;2023-10-19T09:38:17;1.35;;;0.80;;
43142;SDS011;28750;59.842;17.584;2023-10-19T09:40:50;1.98;;;0.98;;
43142;SDS011;28750;59.842;17.584;2023-10-19T09:43:24;1.92;;;0.93;;
43142;SDS011;28750;59.842;17.584;2023-10-19T09:46:04;2.83;;;1.05;;
43142;SDS011;28750;59.842;17.584;2023-10-19T09:48:34;1.95;;;0.88;;
43142;SDS011;28750;59.842;17.584;2023-10-19T09:51:08;0.80;;;0.65;;
43142;SDS011;28750;59.842;17.584;2023-10-19T09:53:36;1.58;;;0.90;;
43142;SDS011;28750;59.842;17.584;2023-10-19T09:56:06;1.60;;;0.90;;
43142;SDS011;28750;59.842;17.584;2023-10-19T09:58:41;2.72;;;1.35;;
43142;SDS011;28750;59.842;17.584;2023-10-19T10:01:19;2.85;;;1.25;;
43142;SDS011;28750;59.842;17.584;2023-10-19T10:03:49;2.47;;;1.15;;
43142;SDS011;28750;59.842;17.584;2023-10-19T10:06:29;2.75;;;1.10;;
43142;SDS011;28750;59.842;17.584;2023-10-19T10:09:18;1.17;;;0.90;;
43142;SDS011;28750;59.842;17.584;2023-10-19T10:11:49;1.27;;;1.08;;
43142;SDS011;28750;59.842;17.584;2023-10-19T10:14:25;1.20;;;1.05;;
43142;SDS011;28750;59.842;17.584;2023-10-19T10:17:03;13.57;;;5.47;;
43142;SDS011;28750;59.842;17.584;2023-10-19T10:19:31;2.22;;;2.03;;
43142;SDS011;28750;59.842;17.584;2023-10-19T10:22:07;3.88;;;1.60;;
43142;SDS011;28750;59.842;17.584;2023-10-19T10:27:11;1.55;;;1.30;;
43142;SDS011;28750;59.842;17.584;2023-10-19T10:29:55;4.10;;;1.63;;
43142;SDS011;28750;59.842;17.584;2023-10-19T10:38:20;2.38;;;1.50;;
43142;SDS011;28750;59.842;17.584;2023-10-19T10:40:49;2.67;;;1.67;;
43142;SDS011;28750;59.842;17.584;2023-10-19T10:43:17;1.85;;;1.20;;
43142;SDS011;28750;59.842;17.584;2023-10-19T10:45:46;2.67;;;1.47;;
43142;SDS011;28750;59.842;17.584;2023-10-19T10:48:14;2.83;;;1.45;;
43142;SDS011;28750;59.842;17.584;2023-10-19T10:50:45;2.00;;;1.23;;
43142;SDS011;28750;59.842;17.584;2023-10-19T10:53:13;2.85;;;1.50;;
43142;SDS011;28750;59.842;17.584;2023-10-19T10:55:41;2.10;;;1.38;;
43142;SDS011;28750;59.842;17.584;2023-10-19T10:58:09;2.45;;;1.60;;
43142;SDS011;28750;59.842;17.584;2023-10-19T11:00:44;2.15;;;1.50;;
43142;SDS011;28750;59.842;17.584;2023-10-19T11:03:14;4.13;;;1.95;;
43142;SDS011;28750;59.842;17.584;2023-10-19T11:05:41;4.60;;;2.45;;
43142;SDS011;28750;59.842;17.584;2023-10-19T11:08:16;2.42;;;1.65;;
43142;SDS011;28750;59.842;17.584;2023-10-19T11:10:46;3.88;;;1.92;;
43142;SDS011;28750;59.842;17.584;2023-10-19T11:13:14;2.67;;;1.80;;
43142;SDS011;28750;59.842;17.584;2023-10-19T11:15:49;1.73;;;1.63;;
43142;SDS011;28750;59.842;17.584;2023-10-19T11:21:07;4.38;;;1.80;;
43142;SDS011;28750;59.842;17.584;2023-10-19T11:23:37;2.70;;;2.08;;
43142;SDS011;28750;59.842;17.584;2023-10-19T11:26:08;4.30;;;1.95;;
43142;SDS011;28750;59.842;17.584;2023-10-19T11:28:37;4.53;;;2.00;;
43142;SDS011;28750;59.842;17.584;2023-10-19T11:31:21;4.45;;;2.03;;
43142;SDS011;28750;59.842;17.584;2023-10-19T11:33:50;5.05;;;2.00;;
43142;SDS011;28750;59.842;17.584;2023-10-19T11:36:20;4.03;;;2.13;;
43142;SDS011;28750;59.842;17.584;2023-10-19T11:38:50;4.60;;;1.90;;
43142;SDS011;28750;59.842;17.584;2023-10-19T11:41:18;4.38;;;2.13;;
43142;SDS011;28750;59.842;17.584;2023-10-19T11:43:46;4.13;;;2.25;;
43142;SDS011;28750;59.842;17.584;2023-10-19T11:46:15;4.35;;;2.20;;
43142;SDS011;28750;59.842;17.584;2023-10-19T11:48:44;2.70;;;1.90;;
43142;SDS011;28750;59.842;17.584;2023-10-19T11:51:12;3.50;;;2.08;;
43142;SDS011;28750;59.842;17.584;2023-10-19T11:53:40;3.20;;;1.85;;
43142;SDS011;28750;59.842;17.584;2023-10-19T11:56:11;2.00;;;1.73;;
43142;SDS011;28750;59.842;17.584;2023-10-19T11:58:41;3.47;;;1.92;;
43142;SDS011;28750;59.842;17.584;2023-10-19T12:01:12;5.95;;;1.67;;
43142;SDS011;28750;59.842;17.584;2023-10-19T12:03:42;1.98;;;1.80;;
43142;SDS011;28750;59.842;17.584;2023-10-19T12:06:11;2.22;;;1.55;;
43142;SDS011;28750;59.842;17.584;2023-10-19T12:08:44;1.83;;;1.70;;
43142;SDS011;28750;59.842;17.584;2023-10-19T12:11:11;4.70;;;1.95;;
43142;SDS011;28750;59.842;17.584;2023-10-19T12:13:45;2.50;;;2.28;;
43142;SDS011;28750;59.842;17.584;2023-10-19T12:18:40;4.15;;;1.77;;
43142;SDS011;28750;59.842;17.584;2023-10-19T12:21:08;2.60;;;1.75;;
43142;SDS011;28750;59.842;17.584;2023-10-19T12:23:41;4.40;;;2.25;;
43142;SDS011;28750;59.842;17.584;2023-10-19T12:26:10;2.97;;;1.98;;
43142;SDS011;28750;59.842;17.584;2023-10-19T12:28:40;2.85;;;2.55;;
43142;SDS011;28750;59.842;17.584;2023-10-19T12:33:39;2.78;;;1.60;;
43142;SDS011;28750;59.842;17.584;2023-10-19T12:36:07;1.70;;;1.60;;
43142;SDS011;28750;59.842;17.584;2023-10-19T12:38:50;5.22;;;2.33;;
43142;SDS011;28750;59.842;17.584;2023-10-19T12:41:18;2.67;;;1.98;;
43142;SDS011;28750;59.842;17.584;2023-10-19T12:43:46;4.35;;;1.77;;
43142;SDS011;28750;59.842;17.584;2023-10-19T12:48:44;4.38;;;1.67;;
43142;SDS011;28750;59.842;17.584;2023-10-19T12:51:12;2.63;;;1.63;;
43142;SDS011;28750;59.842;17.584;2023-10-19T12:53:40;2.80;;;1.92;;
43142;SDS011;28750;59.842;17.584;2023-10-19T12:56:07;2.00;;;1.42;;
43142;SDS011;28750;59.842;17.584;2023-10-19T12:58:35;2.80;;;1.30;;
43142;SDS011;28750;59.842;17.584;2023-10-19T13:01:04;2.95;;;1.50;;
43142;SDS011;28750;59.842;17.584;2023-10-19T13:03:31;2.78;;;1.83;;
43142;SDS011;28750;59.842;17.584;2023-10-19T13:06:01;1.77;;;1.40;;
43142;SDS011;28750;59.842;17.584;2023-10-19T13:10:59;2.78;;;1.20;;
43142;SDS011;28750;59.842;17.584;2023-10-19T13:13:27;2.60;;;1.38;;
43142;SDS011;28750;59.842;17.584;2023-10-19T13:15:54;8.10;;;1.70;;
43142;SDS011;28750;59.842;17.584;2023-10-19T13:18:21;1.75;;;1.63;;
43142;SDS011;28750;59.842;17.584;2023-10-19T13:20:53;3.22;;;1.60;;
43142;SDS011;28750;59.842;17.584;2023-10-19T13:23:22;2.17;;;1.70;;
43142;SDS011;28750;59.842;17.584;2023-10-19T13:25:49;5.28;;;2.35;;
43142;SDS011;28750;59.842;17.584;2023-10-19T13:28:19;2.47;;;1.67;;
43142;SDS011;28750;59.842;17.584;2023-10-19T13:30:48;2.47;;;1.15;;
43142;SDS011;28750;59.842;17.584;2023-10-19T13:33:18;1.60;;;1.35;;
43142;SDS011;28750;59.842;17.584;2023-10-19T13:35:47;2.42;;;1.40;;
43142;SDS011;28750;59.842;17.584;2023-10-19T13:38:16;1.88;;;1.25;;
43142;SDS011;28750;59.842;17.584;2023-10-19T13:40:45;1.67;;;1.58;;
43142;SDS011;28750;59.842;17.584;2023-10-19T13:43:16;1.45;;;1.35;;
43142;SDS011;28750;59.842;17.584;2023-10-19T13:45:44;4.30;;;1.83;;
43142;SDS011;28750;59.842;17.584;2023-10-19T13:48:13;2.95;;;1.85;;
43142;SDS011;28750;59.842;17.584;2023-10-19T13:50:50;2.20;;;1.38;;
43142;SDS011;28750;59.842;17.584;2023-10-19T13:53:21;1.77;;;1.27;;
43142;SDS011;28750;59.842;17.584;2023-10-19T13:55:48;2.22;;;1.80;;
43142;SDS011;28750;59.842;17.584;2023-10-19T13:58:15;1.58;;;1.25;;
43142;SDS011;28750;59.842;17.584;2023-10-19T14:00:42;1.42;;;1.17;;
43142;SDS011;28750;59.842;17.584;2023-10-19T14:03:13;1.58;;;1.45;;
43142;SDS011;28750;59.842;17.584;2023-10-19T14:05:44;1.77;;;1.35;;
43142;SDS011;28750;59.842;17.584;2023-10-19T14:08:14;2.38;;;1.35;;
43142;SDS011;28750;59.842;17.584;2023-10-19T14:10:42;3.78;;;1.60;;
43142;SDS011;28750;59.842;17.584;2023-10-19T14:13:10;1.95;;;1.27;;
43142;SDS011;28750;59.842;17.584;2023-10-19T14:15:38;3.17;;;1.27;;
43142;SDS011;28750;59.842;17.584;2023-10-19T14:18:06;1.25;;;1.15;;
43142;SDS011;28750;59.842;17.584;2023-10-19T14:20:33;1.25;;;1.15;;
43142;SDS011;28750;59.842;17.584;2023-10-19T14:23:04;1.40;;;1.27;;
43142;SDS011;28750;59.842;17.584;2023-10-19T14:25:31;1.35;;;1.13;;
43142;SDS011;28750;59.842;17.584;2023-10-19T14:28:02;1.10;;;1.00;;
43142;SDS011;28750;59.842;17.584;2023-10-19T14:30:32;2.05;;;1.60;;
43142;SDS011;28750;59.842;17.584;2023-10-19T14:32:59;1.27;;;1.17;;
43142;SDS011;28750;59.842;17.584;2023-10-19T14:35:26;2.65;;;1.10;;
43142;SDS011;28750;59.842;17.584;2023-10-19T14:37:54;1.40;;;1.00;;
43142;SDS011;28750;59.842;17.584;2023-10-19T14:40:25;3.35;;;1.45;;
43142;SDS011;28750;59.842;17.584;2023-10-19T14:42:53;2.17;;;1.27;;
43142;SDS011;28750;59.842;17.584;2023-10-19T14:45:23;2.65;;;1.75;;
43142;SDS011;28750;59.842;17.584;2023-10-19T14:47:54;2.78;;;1.33;;
43142;SDS011;28750;59.842;17.584;2023-10-19T14:50:22;2.05;;;1.30;;
43142;SDS011;28750;59.842;17.584;2023-10-19T14:52:51;2.08;;;1.45;;
43142;SDS011;28750;59.842;17.584;2023-10-19T14:55:19;1.98;;;1.60;;
43142;SDS011;28750;59.842;17.584;2023-10-19T14:57:48;2.60;;;1.73;;
43142;SDS011;28750;59.842;17.584;2023-10-19T15:00:19;1.83;;;1.63;;
43142;SDS011;28750;59.842;17.584;2023-10-19T15:02:58;2.58;;;1.70;;
43142;SDS011;28750;59.842;17.584;2023-10-19T15:05:29;3.30;;;1.52;;
43142;SDS011;28750;59.842;17.584;2023-10-19T15:08:00;3.50;;;1.58;;
43142;SDS011;28750;59.842;17.584;2023-10-19T15:10:30;3.53;;;1.40;;
43142;SDS011;28750;59.842;17.584;2023-10-19T15:12:58;2.15;;;1.55;;
43142;SDS011;28750;59.842;17.584;2023-10-19T15:15:26;2.20;;;1.75;;
43142;SDS011;28750;59.842;17.584;2023-10-19T15:17:54;3.38;;;1.80;;
43142;SDS011;28750;59.842;17.584;2023-10-19T15:20:26;1.90;;;1.40;;
43142;SDS011;28750;59.842;17.584;2023-10-19T15:22:55;2.22;;;1.50;;
43142;SDS011;28750;59.842;17.584;2023-10-19T15:25:23;2.47;;;1.70;;